R. Catalunya — EALC — position and weather

sailwx.info

Track history (hours):
 
Tides and Currents Weather Stations Pressure Air Temp Water Temp Dewpoint Dewpoint Depression Visibility Wind Speed Wind Dir Waves Ship Positions

R. Catalunya

Last reported at 2015-Aug-11 16:33 UTC. Time now 2015-Aug-31 10:53 UTC.
Position N 39°15' W 009°49'.
Warning: this ship's position is 19 days out of date.

Length 26 m; draft 6.5 m.

Type: Tug. MMSI: 224149970.

Date/timePositionNaut miles runAvg speedWind from/ knotsBaromVisibWave heightAir tempDewpointWater temp
2015-Aug-11 16:33N 39°15' W 009°49'9 9.2
2015-Aug-11 15:34N 39°05' W 009°50'9 9.0
2015-Aug-11 14:33N 38°56' W 009°50'9 9.2
2015-Aug-11 13:33N 38°47' W 009°50'9 9.3
2015-Aug-11 12:33N 38°38' W 009°48'9 9.3
2015-Aug-11 11:33N 38°29' W 009°46'9 9.1
2015-Aug-11 10:33N 38°20' W 009°43'9 9.4
2015-Aug-11 09:33N 38°11' W 009°40'10 9.5
2015-Aug-11 08:34N 38°02' W 009°37'9 9.4
2015-Aug-11 07:33N 37°53' W 009°35'10 9.4
2015-Aug-11 06:33N 37°43' W 009°32'9 9.3
2015-Aug-11 05:33N 37°34' W 009°30'9 9.1
2015-Aug-11 04:33N 37°25' W 009°27'9 9.1
2015-Aug-11 03:33N 37°17' W 009°25'9 9.1
2015-Aug-11 02:33N 37°08' W 009°22'9 9.2
2015-Aug-11 01:33N 36°59' W 009°20'10 9.0
2015-Aug-11 00:28N 36°50' W 009°14'8 9.1
2015-Aug-10 23:32N 36°44' W 009°06'9 9.1
2015-Aug-10 22:33N 36°42' W 008°56'9 9.1
2015-Aug-10 21:33N 36°39' W 008°45'9 9.1
2015-Aug-10 20:33N 36°36' W 008°34'9 8.8
2015-Aug-10 19:33N 36°34' W 008°24'9 8.5
2015-Aug-10 18:32N 36°31' W 008°13'43 8.6
2015-Aug-10 13:33N 36°18' W 007°23'317 7.9
2015-Aug-08 21:23N 37°21' W 000°54'7 9.0
2015-Aug-08 20:33N 37°26' W 000°47'11 9.6
2015-Aug-08 19:24N 37°33' W 000°37'8 9.7
2015-Aug-08 18:33N 37°39' W 000°30'10 9.4
2015-Aug-08 17:30N 37°48' W 000°23'9 9.4
2015-Aug-08 16:32N 37°55' W 000°17'9 9.4
2015-Aug-08 15:33N 38°03' W 000°11'11 9.6
2015-Aug-08 14:24N 38°12' W 000°03'10 9.3
2015-Aug-08 13:20N 38°21' E 000°04'7 9.3
2015-Aug-08 12:33N 38°27' E 000°09'91 9.1
2015-Aug-08 02:29N 39°46' E 001°06'8 8.5
2015-Aug-08 01:34N 39°54' E 001°11'9 8.5
2015-Aug-08 00:33N 40°01' E 001°16'9 8.5
2015-Aug-07 23:33N 40°09' E 001°22'9 8.5
2015-Aug-07 22:33N 40°16' E 001°27'9 8.6
2015-Aug-07 21:33N 40°24' E 001°32'9 8.7
2015-Aug-07 20:34N 40°31' E 001°38'9 9.3
2015-Aug-07 19:33N 40°40' E 001°44'9 9.4
2015-Aug-07 18:33N 40°48' E 001°50'9 9.1
2015-Aug-07 17:33N 40°56' E 001°56'9 8.8
2015-Aug-07 16:33N 41°03' E 002°01'10 8.6
2015-Aug-07 15:22N 41°12' E 002°08'6 7.8
2015-Aug-07 14:33N 41°18' E 002°10'3 0.9
2015-Aug-07 11:30N 41°21' E 002°09'0 0.0
2015-Aug-07 05:12N 41°21' E 002°09'0 0.0
2015-Aug-07 04:12N 41°21' E 002°09'0 0.0
2015-Aug-07 03:24N 41°21' E 002°09'0 0.0
2015-Aug-07 02:30N 41°21' E 002°09'0 0.0
2015-Aug-07 00:06N 41°21' E 002°09'0 0.0
2015-Aug-06 23:30N 41°21' E 002°09'0 0.0
2015-Aug-06 22:18N 41°21' E 002°09'0 0.0
2015-Aug-06 21:30N 41°21' E 002°09'0 0.0
2015-Aug-06 20:30N 41°21' E 002°09'0 0.0
2015-Aug-06 19:24N 41°21' E 002°09'0 0.0
2015-Aug-06 18:30N 41°21' E 002°09'0 0.0
2015-Aug-06 17:30N 41°21' E 002°09'0 0.0
2015-Aug-06 16:30N 41°21' E 002°09'0 0.0
2015-Aug-06 15:18N 41°21' E 002°09'0 0.0
2015-Aug-06 14:30N 41°21' E 002°09'0 0.0
2015-Aug-06 11:24N 41°21' E 002°09'0 0.0
2015-Aug-06 09:30N 41°21' E 002°09'1 0.1
2015-Aug-06 05:20N 41°20' E 002°09'2 1.0
2015-Aug-06 03:09N 41°22' E 002°11'0 0.1
2015-Aug-05 20:32N 41°22' E 002°11'0 0.0
2015-Aug-05 14:33N 41°21' E 002°11'2 2.4
2015-Aug-05 13:32N 41°19' E 002°10'2 2.3
2015-Aug-05 12:32N 41°21' E 002°10'1 0.8
2015-Aug-05 11:33N 41°21' E 002°10'2 1.1
2015-Aug-05 10:07N 41°22' E 002°11'0 0.0
2015-Aug-05 09:31N 41°22' E 002°11'2 0.5
2015-Aug-05 05:33N 41°21' E 002°09'0 0.2
2015-Aug-05 04:32N 41°21' E 002°09'2 0.4
2015-Aug-05 00:17N 41°22' E 002°11'1 0.2
2015-Aug-04 17:33N 41°21' E 002°11'1 0.1
2015-Aug-04 10:21N 41°22' E 002°11'2 2.1
2015-Aug-04 09:30N 41°21' E 002°09'0 0.0
2015-Aug-04 08:18N 41°21' E 002°09'0 0.0
2015-Aug-04 04:30N 41°21' E 002°09'0 0.0
2015-Aug-04 03:24N 41°21' E 002°09'0 0.0
2015-Aug-04 00:12N 41°21' E 002°09'2 3.5
2015-Aug-03 23:33N 41°18' E 002°09'2 2.0
2015-Aug-03 22:33N 41°20' E 002°10'1 0.2
2015-Aug-03 18:08N 41°21' E 002°09'0 0.0
2015-Aug-03 12:32N 41°21' E 002°09'0 0.0
2015-Aug-03 10:32N 41°21' E 002°09'1 0.0
2015-Aug-01 17:26N 41°21' E 002°10'  
Track history (hours):
 
Tides and Currents Weather Stations Pressure Air Temp Water Temp Dewpoint Dewpoint Depression Visibility Wind Speed Wind Dir Waves Ship Positions

R. Catalunya

Last reported at 2015-Aug-11 16:33 UTC. Time now 2015-Aug-31 10:53 UTC.
Position N 39°15' W 009°49'.
Warning: this ship's position is 19 days out of date.

Length 26 m; draft 6.5 m.

Type: Tug. MMSI: 224149970.

Date/timePositionNaut miles runAvg speedWind from/ knotsBaromVisibWave heightAir tempDewpointWater temp
2015-Aug-11 16:33N 39°15' W 009°49'9 9.2
2015-Aug-11 15:34N 39°05' W 009°50'9 9.0
2015-Aug-11 14:33N 38°56' W 009°50'9 9.2
2015-Aug-11 13:33N 38°47' W 009°50'9 9.3
2015-Aug-11 12:33N 38°38' W 009°48'9 9.3
2015-Aug-11 11:33N 38°29' W 009°46'9 9.1
2015-Aug-11 10:33N 38°20' W 009°43'9 9.4
2015-Aug-11 09:33N 38°11' W 009°40'10 9.5
2015-Aug-11 08:34N 38°02' W 009°37'9 9.4
2015-Aug-11 07:33N 37°53' W 009°35'10 9.4
2015-Aug-11 06:33N 37°43' W 009°32'9 9.3
2015-Aug-11 05:33N 37°34' W 009°30'9 9.1
2015-Aug-11 04:33N 37°25' W 009°27'9 9.1
2015-Aug-11 03:33N 37°17' W 009°25'9 9.1
2015-Aug-11 02:33N 37°08' W 009°22'9 9.2
2015-Aug-11 01:33N 36°59' W 009°20'10 9.0
2015-Aug-11 00:28N 36°50' W 009°14'8 9.1
2015-Aug-10 23:32N 36°44' W 009°06'9 9.1
2015-Aug-10 22:33N 36°42' W 008°56'9 9.1
2015-Aug-10 21:33N 36°39' W 008°45'9 9.1
2015-Aug-10 20:33N 36°36' W 008°34'9 8.8
2015-Aug-10 19:33N 36°34' W 008°24'9 8.5
2015-Aug-10 18:32N 36°31' W 008°13'43 8.6
2015-Aug-10 13:33N 36°18' W 007°23'317 7.9
2015-Aug-08 21:23N 37°21' W 000°54'7 9.0
2015-Aug-08 20:33N 37°26' W 000°47'11 9.6
2015-Aug-08 19:24N 37°33' W 000°37'8 9.7
2015-Aug-08 18:33N 37°39' W 000°30'10 9.4
2015-Aug-08 17:30N 37°48' W 000°23'9 9.4
2015-Aug-08 16:32N 37°55' W 000°17'9 9.4
2015-Aug-08 15:33N 38°03' W 000°11'11 9.6
2015-Aug-08 14:24N 38°12' W 000°03'10 9.3
2015-Aug-08 13:20N 38°21' E 000°04'7 9.3
2015-Aug-08 12:33N 38°27' E 000°09'91 9.1
2015-Aug-08 02:29N 39°46' E 001°06'8 8.5
2015-Aug-08 01:34N 39°54' E 001°11'9 8.5
2015-Aug-08 00:33N 40°01' E 001°16'9 8.5
2015-Aug-07 23:33N 40°09' E 001°22'9 8.5
2015-Aug-07 22:33N 40°16' E 001°27'9 8.6
2015-Aug-07 21:33N 40°24' E 001°32'9 8.7
2015-Aug-07 20:34N 40°31' E 001°38'9 9.3
2015-Aug-07 19:33N 40°40' E 001°44'9 9.4
2015-Aug-07 18:33N 40°48' E 001°50'9 9.1
2015-Aug-07 17:33N 40°56' E 001°56'9 8.8
2015-Aug-07 16:33N 41°03' E 002°01'10 8.6
2015-Aug-07 15:22N 41°12' E 002°08'6 7.8
2015-Aug-07 14:33N 41°18' E 002°10'3 0.9
2015-Aug-07 11:30N 41°21' E 002°09'0 0.0
2015-Aug-07 05:12N 41°21' E 002°09'0 0.0
2015-Aug-07 04:12N 41°21' E 002°09'0 0.0
2015-Aug-07 03:24N 41°21' E 002°09'0 0.0
2015-Aug-07 02:30N 41°21' E 002°09'0 0.0
2015-Aug-07 00:06N 41°21' E 002°09'0 0.0
2015-Aug-06 23:30N 41°21' E 002°09'0 0.0
2015-Aug-06 22:18N 41°21' E 002°09'0 0.0
2015-Aug-06 21:30N 41°21' E 002°09'0 0.0
2015-Aug-06 20:30N 41°21' E 002°09'0 0.0
2015-Aug-06 19:24N 41°21' E 002°09'0 0.0
2015-Aug-06 18:30N 41°21' E 002°09'0 0.0
2015-Aug-06 17:30N 41°21' E 002°09'0 0.0
2015-Aug-06 16:30N 41°21' E 002°09'0 0.0
2015-Aug-06 15:18N 41°21' E 002°09'0 0.0
2015-Aug-06 14:30N 41°21' E 002°09'0 0.0
2015-Aug-06 11:24N 41°21' E 002°09'0 0.0
2015-Aug-06 09:30N 41°21' E 002°09'1 0.1
2015-Aug-06 05:20N 41°20' E 002°09'2 1.0
2015-Aug-06 03:09N 41°22' E 002°11'0 0.1
2015-Aug-05 20:32N 41°22' E 002°11'0 0.0
2015-Aug-05 14:33N 41°21' E 002°11'2 2.4
2015-Aug-05 13:32N 41°19' E 002°10'2 2.3
2015-Aug-05 12:32N 41°21' E 002°10'1 0.8
2015-Aug-05 11:33N 41°21' E 002°10'2 1.1
2015-Aug-05 10:07N 41°22' E 002°11'0 0.0
2015-Aug-05 09:31N 41°22' E 002°11'2 0.5
2015-Aug-05 05:33N 41°21' E 002°09'0 0.2
2015-Aug-05 04:32N 41°21' E 002°09'2 0.4
2015-Aug-05 00:17N 41°22' E 002°11'1 0.2
2015-Aug-04 17:33N 41°21' E 002°11'1 0.1
2015-Aug-04 10:21N 41°22' E 002°11'2 2.1
2015-Aug-04 09:30N 41°21' E 002°09'0 0.0
2015-Aug-04 08:18N 41°21' E 002°09'0 0.0
2015-Aug-04 04:30N 41°21' E 002°09'0 0.0
2015-Aug-04 03:24N 41°21' E 002°09'0 0.0
2015-Aug-04 00:12N 41°21' E 002°09'2 3.5
2015-Aug-03 23:33N 41°18' E 002°09'2 2.0
2015-Aug-03 22:33N 41°20' E 002°10'1 0.2
2015-Aug-03 18:08N 41°21' E 002°09'0 0.0
2015-Aug-03 12:32N 41°21' E 002°09'0 0.0
2015-Aug-03 10:32N 41°21' E 002°09'1 0.0
2015-Aug-01 17:26N 41°21' E 002°10'  

Dump ship's entire track history